Terminal Aerodrome Forecast
Issued by NWS Cleveland, OH

Home | Current Version | Previous Version | Graphics & Text | Print | Product List | Glossary Off
Versions: 1 2 3 4 5 6 7 8 9 10 11 12 13 14 15 16 17

192
FTUS41 KCLE 261513 AAA
TAFERI
TAF AMD
KERI 261513Z 2615/2712 28010KT 2SM -SHRA BKN030 OVC040
     FM261600 26012KT 3SM -SHRA SCT015 OVC030
     FM261700 25012G18KT 5SM -SHRA OVC025
     FM262300 27015G25KT P6SM SCT025 OVC060=

USA.gov is the U.S. government's official web portal to all federal, state and local government web resources and services.